sensor_id;sensor_type;location;lat;lon;timestamp;temperature;humidity
84440;SHT31;74675;51.980;5.730;2024-02-23T00:01:29;5.4;85.5
84440;SHT31;74675;51.980;5.730;2024-02-23T00:03:57;5.4;84.6
84440;SHT31;74675;51.980;5.730;2024-02-23T00:06:26;5.4;84.8
84440;SHT31;74675;51.980;5.730;2024-02-23T00:08:55;5.4;84.6
84440;SHT31;74675;51.980;5.730;2024-02-23T00:11:24;5.4;85.7
84440;SHT31;74675;51.980;5.730;2024-02-23T00:13:56;5.4;86.1
84440;SHT31;74675;51.980;5.730;2024-02-23T00:16:25;5.4;86.8
84440;SHT31;74675;51.980;5.730;2024-02-23T00:18:53;5.4;87.5
84440;SHT31;74675;51.980;5.730;2024-02-23T00:21:23;5.5;88.1
84440;SHT31;74675;51.980;5.730;2024-02-23T00:23:51;5.5;88.4
84440;SHT31;74675;51.980;5.730;2024-02-23T00:26:20;5.6;87.6
84440;SHT31;74675;51.980;5.730;2024-02-23T00:28:48;5.6;87.4
84440;SHT31;74675;51.980;5.730;2024-02-23T00:31:17;5.6;87.4
84440;SHT31;74675;51.980;5.730;2024-02-23T00:33:45;5.7;87.3
84440;SHT31;74675;51.980;5.730;2024-02-23T00:36:14;5.7;87.4
84440;SHT31;74675;51.980;5.730;2024-02-23T00:38:43;5.7;87.2
84440;SHT31;74675;51.980;5.730;2024-02-23T00:41:11;5.8;86.7
84440;SHT31;74675;51.980;5.730;2024-02-23T00:43:41;5.8;85.6
84440;SHT31;74675;51.980;5.730;2024-02-23T00:46:10;5.8;85.2
84440;SHT31;74675;51.980;5.730;2024-02-23T00:48:40;5.8;85.7
84440;SHT31;74675;51.980;5.730;2024-02-23T00:51:09;5.7;84.9
84440;SHT31;74675;51.980;5.730;2024-02-23T00:53:37;5.7;84.4
84440;SHT31;74675;51.980;5.730;2024-02-23T00:56:07;5.7;83.0
84440;SHT31;74675;51.980;5.730;2024-02-23T00:58:35;5.5;80.4
84440;SHT31;74675;51.980;5.730;2024-02-23T01:01:04;5.2;81.6
84440;SHT31;74675;51.980;5.730;2024-02-23T01:03:33;5.0;83.5
84440;SHT31;74675;51.980;5.730;2024-02-23T01:06:02;4.8;84.9
84440;SHT31;74675;51.980;5.730;2024-02-23T01:08:31;4.7;85.7
84440;SHT31;74675;51.980;5.730;2024-02-23T01:11:00;4.6;86.6
84440;SHT31;74675;51.980;5.730;2024-02-23T01:13:28;4.6;86.9
84440;SHT31;74675;51.980;5.730;2024-02-23T01:15:57;4.5;88.3
84440;SHT31;74675;51.980;5.730;2024-02-23T01:18:25;4.5;89.6
84440;SHT31;74675;51.980;5.730;2024-02-23T01:20:56;4.5;90.3
84440;SHT31;74675;51.980;5.730;2024-02-23T01:23:25;4.6;90.9
84440;SHT31;74675;51.980;5.730;2024-02-23T01:25:53;4.7;91.2
84440;SHT31;74675;51.980;5.730;2024-02-23T01:28:22;4.7;91.4
84440;SHT31;74675;51.980;5.730;2024-02-23T01:30:50;4.8;91.1
84440;SHT31;74675;51.980;5.730;2024-02-23T01:33:19;4.9;90.7
84440;SHT31;74675;51.980;5.730;2024-02-23T01:35:48;5.0;90.3
84440;SHT31;74675;51.980;5.730;2024-02-23T01:38:17;5.0;89.6
84440;SHT31;74675;51.980;5.730;2024-02-23T01:40:48;5.1;89.4
84440;SHT31;74675;51.980;5.730;2024-02-23T01:43:17;5.1;88.8
84440;SHT31;74675;51.980;5.730;2024-02-23T01:45:45;5.1;88.4
84440;SHT31;74675;51.980;5.730;2024-02-23T01:48:14;5.2;88.3
84440;SHT31;74675;51.980;5.730;2024-02-23T01:50:43;5.2;87.8
84440;SHT31;74675;51.980;5.730;2024-02-23T01:53:13;5.2;87.8
84440;SHT31;74675;51.980;5.730;2024-02-23T01:55:43;5.2;87.6
84440;SHT31;74675;51.980;5.730;2024-02-23T01:58:14;5.2;87.4
84440;SHT31;74675;51.980;5.730;2024-02-23T02:00:45;5.3;87.1
84440;SHT31;74675;51.980;5.730;2024-02-23T02:03:14;5.3;87.0
84440;SHT31;74675;51.980;5.730;2024-02-23T02:05:42;5.3;86.4
84440;SHT31;74675;51.980;5.730;2024-02-23T02:08:11;5.3;86.6
84440;SHT31;74675;51.980;5.730;2024-02-23T02:10:40;5.3;86.6
84440;SHT31;74675;51.980;5.730;2024-02-23T02:13:11;5.3;86.1
84440;SHT31;74675;51.980;5.730;2024-02-23T02:15:40;5.3;85.8
84440;SHT31;74675;51.980;5.730;2024-02-23T02:18:10;5.3;86.0
84440;SHT31;74675;51.980;5.730;2024-02-23T02:20:49;5.3;85.9
84440;SHT31;74675;51.980;5.730;2024-02-23T02:23:19;5.3;85.8
84440;SHT31;74675;51.980;5.730;2024-02-23T02:25:54;5.3;85.5
84440;SHT31;74675;51.980;5.730;2024-02-23T02:28:24;5.3;85.5
84440;SHT31;74675;51.980;5.730;2024-02-23T02:30:55;5.3;85.2
84440;SHT31;74675;51.980;5.730;2024-02-23T02:33:24;5.3;85.2
84440;SHT31;74675;51.980;5.730;2024-02-23T02:35:54;5.3;85.1
84440;SHT31;74675;51.980;5.730;2024-02-23T02:38:23;5.2;85.1
84440;SHT31;74675;51.980;5.730;2024-02-23T02:40:52;5.2;85.0
84440;SHT31;74675;51.980;5.730;2024-02-23T02:43:20;5.2;85.0
84440;SHT31;74675;51.980;5.730;2024-02-23T02:45:49;5.2;85.1
84440;SHT31;74675;51.980;5.730;2024-02-23T02:48:18;5.2;85.2
84440;SHT31;74675;51.980;5.730;2024-02-23T02:50:46;5.2;84.9
84440;SHT31;74675;51.980;5.730;2024-02-23T02:53:16;5.3;85.3
84440;SHT31;74675;51.980;5.730;2024-02-23T02:55:45;5.3;84.7
84440;SHT31;74675;51.980;5.730;2024-02-23T02:58:14;5.3;85.1
84440;SHT31;74675;51.980;5.730;2024-02-23T03:00:45;5.3;84.8
84440;SHT31;74675;51.980;5.730;2024-02-23T03:03:13;5.3;84.8
84440;SHT31;74675;51.980;5.730;2024-02-23T03:05:42;5.3;84.9
84440;SHT31;74675;51.980;5.730;2024-02-23T03:08:12;5.4;84.7
84440;SHT31;74675;51.980;5.730;2024-02-23T03:10:42;5.4;83.7
84440;SHT31;74675;51.980;5.730;2024-02-23T03:13:10;5.5;83.1
84440;SHT31;74675;51.980;5.730;2024-02-23T03:15:39;5.5;83.3
84440;SHT31;74675;51.980;5.730;2024-02-23T03:18:07;5.5;83.0
84440;SHT31;74675;51.980;5.730;2024-02-23T03:20:37;5.5;83.0
84440;SHT31;74675;51.980;5.730;2024-02-23T03:23:06;5.5;83.0
84440;SHT31;74675;51.980;5.730;2024-02-23T03:25:34;5.5;82.8
84440;SHT31;74675;51.980;5.730;2024-02-23T03:28:03;5.4;82.9
84440;SHT31;74675;51.980;5.730;2024-02-23T03:30:34;5.4;82.6
84440;SHT31;74675;51.980;5.730;2024-02-23T03:33:03;5.4;83.2
84440;SHT31;74675;51.980;5.730;2024-02-23T03:35:33;5.4;83.2
84440;SHT31;74675;51.980;5.730;2024-02-23T03:38:02;5.4;83.4
84440;SHT31;74675;51.980;5.730;2024-02-23T03:40:30;5.4;83.5
84440;SHT31;74675;51.980;5.730;2024-02-23T03:43:00;5.4;82.9
84440;SHT31;74675;51.980;5.730;2024-02-23T03:45:29;5.4;83.2
84440;SHT31;74675;51.980;5.730;2024-02-23T03:47:58;5.4;83.0
84440;SHT31;74675;51.980;5.730;2024-02-23T03:50:27;5.4;83.4
84440;SHT31;74675;51.980;5.730;2024-02-23T03:52:56;5.4;83.0
84440;SHT31;74675;51.980;5.730;2024-02-23T03:55:24;5.4;83.1
84440;SHT31;74675;51.980;5.730;2024-02-23T03:57:55;5.5;82.7
84440;SHT31;74675;51.980;5.730;2024-02-23T04:00:25;5.5;82.9
84440;SHT31;74675;51.980;5.730;2024-02-23T04:02:54;5.5;82.7
84440;SHT31;74675;51.980;5.730;2024-02-23T04:05:23;5.5;82.5
84440;SHT31;74675;51.980;5.730;2024-02-23T04:07:52;5.6;82.6
84440;SHT31;74675;51.980;5.730;2024-02-23T04:10:20;5.6;82.0
84440;SHT31;74675;51.980;5.730;2024-02-23T04:12:49;5.7;81.7
84440;SHT31;74675;51.980;5.730;2024-02-23T04:15:18;5.8;80.9
84440;SHT31;74675;51.980;5.730;2024-02-23T04:17:47;5.8;80.6
84440;SHT31;74675;51.980;5.730;2024-02-23T04:20:15;5.9;80.7
84440;SHT31;74675;51.980;5.730;2024-02-23T04:22:44;5.9;80.1
84440;SHT31;74675;51.980;5.730;2024-02-23T04:25:13;6.0;80.1
84440;SHT31;74675;51.980;5.730;2024-02-23T04:27:42;6.0;79.7
84440;SHT31;74675;51.980;5.730;2024-02-23T04:30:14;6.0;79.9
84440;SHT31;74675;51.980;5.730;2024-02-23T04:32:43;6.1;79.7
84440;SHT31;74675;51.980;5.730;2024-02-23T04:35:14;6.1;79.6
84440;SHT31;74675;51.980;5.730;2024-02-23T04:37:45;6.2;79.3
84440;SHT31;74675;51.980;5.730;2024-02-23T04:40:16;6.2;79.3
84440;SHT31;74675;51.980;5.730;2024-02-23T04:42:45;6.2;78.8
84440;SHT31;74675;51.980;5.730;2024-02-23T04:45:14;6.3;78.8
84440;SHT31;74675;51.980;5.730;2024-02-23T04:47:42;6.3;78.3
84440;SHT31;74675;51.980;5.730;2024-02-23T04:50:13;6.4;78.3
84440;SHT31;74675;51.980;5.730;2024-02-23T04:52:41;6.4;77.9
84440;SHT31;74675;51.980;5.730;2024-02-23T04:55:12;6.4;77.9
84440;SHT31;74675;51.980;5.730;2024-02-23T04:57:41;6.5;78.2
84440;SHT31;74675;51.980;5.730;2024-02-23T05:00:10;6.5;78.0
84440;SHT31;74675;51.980;5.730;2024-02-23T05:02:39;6.6;77.9
84440;SHT31;74675;51.980;5.730;2024-02-23T05:05:11;6.7;77.6
84440;SHT31;74675;51.980;5.730;2024-02-23T05:07:39;6.9;77.2
84440;SHT31;74675;51.980;5.730;2024-02-23T05:10:09;7.0;75.8
84440;SHT31;74675;51.980;5.730;2024-02-23T05:12:38;7.1;75.4
84440;SHT31;74675;51.980;5.730;2024-02-23T05:15:07;7.1;75.1
84440;SHT31;74675;51.980;5.730;2024-02-23T05:17:36;7.2;74.8
84440;SHT31;74675;51.980;5.730;2024-02-23T05:20:07;7.3;74.6
84440;SHT31;74675;51.980;5.730;2024-02-23T05:22:38;7.3;74.5
84440;SHT31;74675;51.980;5.730;2024-02-23T05:25:07;7.4;73.5
84440;SHT31;74675;51.980;5.730;2024-02-23T05:27:36;7.4;73.4
84440;SHT31;74675;51.980;5.730;2024-02-23T05:30:05;7.4;73.4
84440;SHT31;74675;51.980;5.730;2024-02-23T05:32:34;7.4;73.6
84440;SHT31;74675;51.980;5.730;2024-02-23T05:35:04;7.4;73.2
84440;SHT31;74675;51.980;5.730;2024-02-23T05:37:32;7.4;73.9
84440;SHT31;74675;51.980;5.730;2024-02-23T05:40:01;7.4;73.6
84440;SHT31;74675;51.980;5.730;2024-02-23T05:42:36;7.4;73.3
84440;SHT31;74675;51.980;5.730;2024-02-23T05:45:07;7.4;73.3
84440;SHT31;74675;51.980;5.730;2024-02-23T05:47:37;7.3;73.1
84440;SHT31;74675;51.980;5.730;2024-02-23T05:50:08;7.3;73.3
84440;SHT31;74675;51.980;5.730;2024-02-23T05:52:37;7.3;73.8
84440;SHT31;74675;51.980;5.730;2024-02-23T05:55:06;7.3;73.7
84440;SHT31;74675;51.980;5.730;2024-02-23T05:57:35;7.3;73.3
84440;SHT31;74675;51.980;5.730;2024-02-23T06:00:04;7.3;73.0
84440;SHT31;74675;51.980;5.730;2024-02-23T06:02:33;7.3;73.9
84440;SHT31;74675;51.980;5.730;2024-02-23T06:05:02;7.3;73.6
84440;SHT31;74675;51.980;5.730;2024-02-23T06:07:31;7.3;73.9
84440;SHT31;74675;51.980;5.730;2024-02-23T06:09:59;7.3;73.6
84440;SHT31;74675;51.980;5.730;2024-02-23T06:12:28;7.3;73.9
84440;SHT31;74675;51.980;5.730;2024-02-23T06:14:57;7.4;74.7
84440;SHT31;74675;51.980;5.730;2024-02-23T06:17:26;7.4;74.2
84440;SHT31;74675;51.980;5.730;2024-02-23T06:19:54;7.4;74.0
84440;SHT31;74675;51.980;5.730;2024-02-23T06:22:25;7.5;73.4
84440;SHT31;74675;51.980;5.730;2024-02-23T06:24:53;7.5;74.0
84440;SHT31;74675;51.980;5.730;2024-02-23T06:27:22;7.5;72.9
84440;SHT31;74675;51.980;5.730;2024-02-23T06:29:51;7.5;73.3
84440;SHT31;74675;51.980;5.730;2024-02-23T06:32:20;7.5;73.9
84440;SHT31;74675;51.980;5.730;2024-02-23T06:34:49;7.5;72.9
84440;SHT31;74675;51.980;5.730;2024-02-23T06:37:17;7.5;73.1
84440;SHT31;74675;51.980;5.730;2024-02-23T06:39:48;7.4;73.0
84440;SHT31;74675;51.980;5.730;2024-02-23T06:42:20;7.4;73.3
84440;SHT31;74675;51.980;5.730;2024-02-23T06:44:49;7.4;73.1
84440;SHT31;74675;51.980;5.730;2024-02-23T06:47:18;7.4;73.8
84440;SHT31;74675;51.980;5.730;2024-02-23T06:49:46;7.5;73.8
84440;SHT31;74675;51.980;5.730;2024-02-23T06:52:15;7.5;73.9
84440;SHT31;74675;51.980;5.730;2024-02-23T06:54:44;7.5;73.8
84440;SHT31;74675;51.980;5.730;2024-02-23T06:57:13;7.5;73.6
84440;SHT31;74675;51.980;5.730;2024-02-23T06:59:42;7.5;73.2
84440;SHT31;74675;51.980;5.730;2024-02-23T07:02:11;7.6;73.1
84440;SHT31;74675;51.980;5.730;2024-02-23T07:04:40;7.7;72.9
84440;SHT31;74675;51.980;5.730;2024-02-23T07:07:08;7.8;72.9
84440;SHT31;74675;51.980;5.730;2024-02-23T07:09:38;7.9;71.9
84440;SHT31;74675;51.980;5.730;2024-02-23T07:12:07;8.0;69.9
84440;SHT31;74675;51.980;5.730;2024-02-23T07:14:38;8.0;69.0
84440;SHT31;74675;51.980;5.730;2024-02-23T07:17:06;8.0;69.7
84440;SHT31;74675;51.980;5.730;2024-02-23T07:19:38;8.1;70.0
84440;SHT31;74675;51.980;5.730;2024-02-23T07:22:06;8.2;69.6
84440;SHT31;74675;51.980;5.730;2024-02-23T07:24:39;8.3;68.6
84440;SHT31;74675;51.980;5.730;2024-02-23T07:27:09;8.4;68.1
84440;SHT31;74675;51.980;5.730;2024-02-23T07:29:37;8.4;67.8
84440;SHT31;74675;51.980;5.730;2024-02-23T07:32:06;8.4;67.8
84440;SHT31;74675;51.980;5.730;2024-02-23T07:34:35;8.4;67.6
84440;SHT31;74675;51.980;5.730;2024-02-23T07:37:03;8.3;67.7
84440;SHT31;74675;51.980;5.730;2024-02-23T07:39:32;8.3;68.2
84440;SHT31;74675;51.980;5.730;2024-02-23T07:42:03;8.2;67.9
84440;SHT31;74675;51.980;5.730;2024-02-23T07:44:32;8.2;68.6
84440;SHT31;74675;51.980;5.730;2024-02-23T07:47:01;8.2;68.7
84440;SHT31;74675;51.980;5.730;2024-02-23T07:49:29;8.1;69.2
84440;SHT31;74675;51.980;5.730;2024-02-23T07:51:58;8.1;68.9
84440;SHT31;74675;51.980;5.730;2024-02-23T07:54:26;8.1;69.2
84440;SHT31;74675;51.980;5.730;2024-02-23T07:56:55;8.1;69.2
84440;SHT31;74675;51.980;5.730;2024-02-23T07:59:24;8.1;68.4
84440;SHT31;74675;51.980;5.730;2024-02-23T08:01:52;8.1;68.5
84440;SHT31;74675;51.980;5.730;2024-02-23T08:04:22;8.1;68.4
84440;SHT31;74675;51.980;5.730;2024-02-23T08:06:50;8.2;67.8
84440;SHT31;74675;51.980;5.730;2024-02-23T08:09:19;8.2;68.7
84440;SHT31;74675;51.980;5.730;2024-02-23T08:11:49;8.2;68.8
84440;SHT31;74675;51.980;5.730;2024-02-23T08:14:18;8.2;68.6
84440;SHT31;74675;51.980;5.730;2024-02-23T08:16:47;8.2;67.8
84440;SHT31;74675;51.980;5.730;2024-02-23T08:19:16;8.3;67.9
84440;SHT31;74675;51.980;5.730;2024-02-23T08:21:45;8.3;67.8
84440;SHT31;74675;51.980;5.730;2024-02-23T08:24:15;8.3;68.0
84440;SHT31;74675;51.980;5.730;2024-02-23T08:26:44;8.3;67.5
84440;SHT31;74675;51.980;5.730;2024-02-23T08:29:12;8.3;67.5
84440;SHT31;74675;51.980;5.730;2024-02-23T08:31:41;8.3;68.1
84440;SHT31;74675;51.980;5.730;2024-02-23T08:34:10;8.3;67.7
84440;SHT31;74675;51.980;5.730;2024-02-23T08:36:38;8.3;67.8
84440;SHT31;74675;51.980;5.730;2024-02-23T08:39:07;8.4;67.7
84440;SHT31;74675;51.980;5.730;2024-02-23T08:41:36;8.4;67.4
84440;SHT31;74675;51.980;5.730;2024-02-23T08:44:05;8.4;67.6
84440;SHT31;74675;51.980;5.730;2024-02-23T08:46:34;8.4;68.2
84440;SHT31;74675;51.980;5.730;2024-02-23T08:49:05;8.5;67.4
84440;SHT31;74675;51.980;5.730;2024-02-23T08:51:34;8.5;68.3
84440;SHT31;74675;51.980;5.730;2024-02-23T08:54:03;8.5;67.2
84440;SHT31;74675;51.980;5.730;2024-02-23T08:56:36;8.6;66.4
84440;SHT31;74675;51.980;5.730;2024-02-23T08:59:05;8.6;66.9
84440;SHT31;74675;51.980;5.730;2024-02-23T09:01:34;8.6;66.6
84440;SHT31;74675;51.980;5.730;2024-02-23T09:04:02;8.6;65.8
84440;SHT31;74675;51.980;5.730;2024-02-23T09:06:31;8.7;66.4
84440;SHT31;74675;51.980;5.730;2024-02-23T09:09:00;8.7;66.2
84440;SHT31;74675;51.980;5.730;2024-02-23T09:11:29;8.7;66.3
84440;SHT31;74675;51.980;5.730;2024-02-23T09:13:57;8.7;66.2
84440;SHT31;74675;51.980;5.730;2024-02-23T09:16:26;8.7;66.4
84440;SHT31;74675;51.980;5.730;2024-02-23T09:18:54;8.7;66.7
84440;SHT31;74675;51.980;5.730;2024-02-23T09:21:23;8.7;66.4
84440;SHT31;74675;51.980;5.730;2024-02-23T09:23:51;8.7;66.6
84440;SHT31;74675;51.980;5.730;2024-02-23T09:26:22;8.7;67.1
84440;SHT31;74675;51.980;5.730;2024-02-23T09:28:50;8.7;67.3
84440;SHT31;74675;51.980;5.730;2024-02-23T09:31:19;8.7;66.4
84440;SHT31;74675;51.980;5.730;2024-02-23T09:33:48;8.8;67.1
84440;SHT31;74675;51.980;5.730;2024-02-23T09:36:17;8.8;67.3
84440;SHT31;74675;51.980;5.730;2024-02-23T09:38:46;8.8;66.9
84440;SHT31;74675;51.980;5.730;2024-02-23T09:41:19;8.8;67.0
84440;SHT31;74675;51.980;5.730;2024-02-23T09:43:49;8.9;66.1
84440;SHT31;74675;51.980;5.730;2024-02-23T09:46:19;8.9;67.2
84440;SHT31;74675;51.980;5.730;2024-02-23T09:48:49;8.9;67.8
84440;SHT31;74675;51.980;5.730;2024-02-23T09:51:19;8.9;66.7
84440;SHT31;74675;51.980;5.730;2024-02-23T09:53:52;9.0;66.9
84440;SHT31;74675;51.980;5.730;2024-02-23T09:56:22;9.0;67.3
84440;SHT31;74675;51.980;5.730;2024-02-23T09:58:56;9.0;66.6
84440;SHT31;74675;51.980;5.730;2024-02-23T10:01:29;9.0;67.5
84440;SHT31;74675;51.980;5.730;2024-02-23T10:04:02;9.0;67.6
84440;SHT31;74675;51.980;5.730;2024-02-23T10:06:32;9.0;67.5
84440;SHT31;74675;51.980;5.730;2024-02-23T10:09:01;9.0;67.8
84440;SHT31;74675;51.980;5.730;2024-02-23T10:11:32;8.9;69.0
84440;SHT31;74675;51.980;5.730;2024-02-23T10:14:02;8.9;68.8
84440;SHT31;74675;51.980;5.730;2024-02-23T10:16:31;8.8;69.0
84440;SHT31;74675;51.980;5.730;2024-02-23T10:18:59;8.8;69.3
84440;SHT31;74675;51.980;5.730;2024-02-23T10:21:28;8.7;70.2
84440;SHT31;74675;51.980;5.730;2024-02-23T10:23:57;8.7;69.7
84440;SHT31;74675;51.980;5.730;2024-02-23T10:26:26;8.6;69.9
84440;SHT31;74675;51.980;5.730;2024-02-23T10:28:55;8.6;69.4
84440;SHT31;74675;51.980;5.730;2024-02-23T10:31:25;8.6;70.6
84440;SHT31;74675;51.980;5.730;2024-02-23T10:33:54;8.5;70.3
84440;SHT31;74675;51.980;5.730;2024-02-23T10:36:27;8.5;70.4
84440;SHT31;74675;51.980;5.730;2024-02-23T10:39:02;8.5;70.5
84440;SHT31;74675;51.980;5.730;2024-02-23T10:41:35;8.5;70.0
84440;SHT31;74675;51.980;5.730;2024-02-23T10:44:05;8.5;70.7
84440;SHT31;74675;51.980;5.730;2024-02-23T10:46:34;8.6;70.2
84440;SHT31;74675;51.980;5.730;2024-02-23T10:49:04;8.6;71.3
84440;SHT31;74675;51.980;5.730;2024-02-23T10:51:37;8.6;70.8
84440;SHT31;74675;51.980;5.730;2024-02-23T10:54:08;8.7;70.4
84440;SHT31;74675;51.980;5.730;2024-02-23T10:56:37;8.7;71.0
84440;SHT31;74675;51.980;5.730;2024-02-23T10:59:08;8.8;69.9
84440;SHT31;74675;51.980;5.730;2024-02-23T11:01:38;8.8;68.9
84440;SHT31;74675;51.980;5.730;2024-02-23T11:04:08;8.8;69.2
84440;SHT31;74675;51.980;5.730;2024-02-23T11:06:37;8.8;69.2
84440;SHT31;74675;51.980;5.730;2024-02-23T11:09:12;8.9;69.3
84440;SHT31;74675;51.980;5.730;2024-02-23T11:11:52;8.9;68.8
84440;SHT31;74675;51.980;5.730;2024-02-23T11:14:31;8.9;69.1
84440;SHT31;74675;51.980;5.730;2024-02-23T11:17:01;8.9;69.1
84440;SHT31;74675;51.980;5.730;2024-02-23T11:19:37;8.9;68.9
84440;SHT31;74675;51.980;5.730;2024-02-23T11:22:09;9.0;68.9
84440;SHT31;74675;51.980;5.730;2024-02-23T11:24:43;9.0;68.7
84440;SHT31;74675;51.980;5.730;2024-02-23T11:27:15;9.0;68.1
84440;SHT31;74675;51.980;5.730;2024-02-23T11:29:45;9.0;68.0
84440;SHT31;74675;51.980;5.730;2024-02-23T11:32:16;9.0;68.5
84440;SHT31;74675;51.980;5.730;2024-02-23T11:34:56;9.1;69.0
84440;SHT31;74675;51.980;5.730;2024-02-23T11:37:28;9.1;68.6
84440;SHT31;74675;51.980;5.730;2024-02-23T11:39:57;9.1;69.3
84440;SHT31;74675;51.980;5.730;2024-02-23T11:42:27;9.2;68.6
84440;SHT31;74675;51.980;5.730;2024-02-23T11:44:56;9.2;68.5
84440;SHT31;74675;51.980;5.730;2024-02-23T11:47:25;9.2;68.7
84440;SHT31;74675;51.980;5.730;2024-02-23T11:49:55;9.3;69.1
84440;SHT31;74675;51.980;5.730;2024-02-23T11:52:24;9.4;68.5
84440;SHT31;74675;51.980;5.730;2024-02-23T11:54:52;9.4;67.8
84440;SHT31;74675;51.980;5.730;2024-02-23T11:57:23;9.4;67.8
84440;SHT31;74675;51.980;5.730;2024-02-23T11:59:53;9.5;67.8
84440;SHT31;74675;51.980;5.730;2024-02-23T12:02:23;9.5;67.5
84440;SHT31;74675;51.980;5.730;2024-02-23T12:04:52;9.5;67.8
84440;SHT31;74675;51.980;5.730;2024-02-23T12:07:23;9.5;67.6
84440;SHT31;74675;51.980;5.730;2024-02-23T12:09:55;9.6;66.9
84440;SHT31;74675;51.980;5.730;2024-02-23T12:12:25;9.6;67.5
84440;SHT31;74675;51.980;5.730;2024-02-23T12:14:55;9.6;67.1
84440;SHT31;74675;51.980;5.730;2024-02-23T12:17:25;9.6;67.3
84440;SHT31;74675;51.980;5.730;2024-02-23T12:19:59;9.7;68.3
84440;SHT31;74675;51.980;5.730;2024-02-23T12:22:29;9.7;67.6
84440;SHT31;74675;51.980;5.730;2024-02-23T12:24:59;9.8;67.8
84440;SHT31;74675;51.980;5.730;2024-02-23T12:27:29;9.8;67.0
84440;SHT31;74675;51.980;5.730;2024-02-23T12:29:58;9.8;67.4
84440;SHT31;74675;51.980;5.730;2024-02-23T12:32:29;9.9;67.0
84440;SHT31;74675;51.980;5.730;2024-02-23T12:34:57;9.9;66.0
84440;SHT31;74675;51.980;5.730;2024-02-23T12:37:26;9.9;66.7
84440;SHT31;74675;51.980;5.730;2024-02-23T12:39:55;9.9;67.7
84440;SHT31;74675;51.980;5.730;2024-02-23T12:42:24;9.9;66.6
84440;SHT31;74675;51.980;5.730;2024-02-23T12:44:52;10.0;67.1
84440;SHT31;74675;51.980;5.730;2024-02-23T12:47:21;10.0;67.6
84440;SHT31;74675;51.980;5.730;2024-02-23T12:49:50;10.1;67.1
84440;SHT31;74675;51.980;5.730;2024-02-23T12:52:18;10.1;66.0
84440;SHT31;74675;51.980;5.730;2024-02-23T12:54:47;10.2;65.8
84440;SHT31;74675;51.980;5.730;2024-02-23T12:57:15;10.2;65.8
84440;SHT31;74675;51.980;5.730;2024-02-23T12:59:44;10.3;65.6
84440;SHT31;74675;51.980;5.730;2024-02-23T13:02:13;10.3;64.9
84440;SHT31;74675;51.980;5.730;2024-02-23T13:04:41;10.3;65.5
84440;SHT31;74675;51.980;5.730;2024-02-23T13:07:15;10.4;64.9
84440;SHT31;74675;51.980;5.730;2024-02-23T13:09:44;10.4;63.6
84440;SHT31;74675;51.980;5.730;2024-02-23T13:12:15;10.4;63.9
84440;SHT31;74675;51.980;5.730;2024-02-23T13:14:44;10.5;64.6
84440;SHT31;74675;51.980;5.730;2024-02-23T13:17:12;10.6;64.9
84440;SHT31;74675;51.980;5.730;2024-02-23T13:19:41;10.8;64.0
84440;SHT31;74675;51.980;5.730;2024-02-23T13:22:12;10.9;62.3
84440;SHT31;74675;51.980;5.730;2024-02-23T13:24:40;10.9;61.8
84440;SHT31;74675;51.980;5.730;2024-02-23T13:27:11;10.9;61.1
84440;SHT31;74675;51.980;5.730;2024-02-23T13:29:39;11.0;61.4
84440;SHT31;74675;51.980;5.730;2024-02-23T13:32:10;11.1;61.7
84440;SHT31;74675;51.980;5.730;2024-02-23T13:34:40;11.2;60.9
84440;SHT31;74675;51.980;5.730;2024-02-23T13:37:08;11.3;59.3
84440;SHT31;74675;51.980;5.730;2024-02-23T13:39:37;11.3;59.9
84440;SHT31;74675;51.980;5.730;2024-02-23T13:42:06;11.3;60.4
84440;SHT31;74675;51.980;5.730;2024-02-23T13:44:36;11.3;59.6
84440;SHT31;74675;51.980;5.730;2024-02-23T13:47:05;11.3;59.0
84440;SHT31;74675;51.980;5.730;2024-02-23T13:49:34;11.3;60.4
84440;SHT31;74675;51.980;5.730;2024-02-23T13:52:03;11.2;60.5
84440;SHT31;74675;51.980;5.730;2024-02-23T13:54:31;11.2;60.6
84440;SHT31;74675;51.980;5.730;2024-02-23T13:57:00;11.2;61.1
84440;SHT31;74675;51.980;5.730;2024-02-23T13:59:29;11.2;60.4
84440;SHT31;74675;51.980;5.730;2024-02-23T14:01:57;11.2;61.5
84440;SHT31;74675;51.980;5.730;2024-02-23T14:04:28;11.1;61.3
84440;SHT31;74675;51.980;5.730;2024-02-23T14:06:57;11.1;61.0
84440;SHT31;74675;51.980;5.730;2024-02-23T14:09:25;11.1;61.8
84440;SHT31;74675;51.980;5.730;2024-02-23T14:11:54;11.1;60.9
84440;SHT31;74675;51.980;5.730;2024-02-23T14:14:23;11.1;60.9
84440;SHT31;74675;51.980;5.730;2024-02-23T14:16:52;11.1;60.4
84440;SHT31;74675;51.980;5.730;2024-02-23T14:19:20;11.1;60.1
84440;SHT31;74675;51.980;5.730;2024-02-23T14:21:49;11.0;60.7
84440;SHT31;74675;51.980;5.730;2024-02-23T14:24:18;11.1;61.0
84440;SHT31;74675;51.980;5.730;2024-02-23T14:26:46;11.1;60.7
84440;SHT31;74675;51.980;5.730;2024-02-23T14:29:15;11.1;62.9
84440;SHT31;74675;51.980;5.730;2024-02-23T14:31:44;11.2;62.5
84440;SHT31;74675;51.980;5.730;2024-02-23T14:34:13;11.2;62.5
84440;SHT31;74675;51.980;5.730;2024-02-23T14:36:41;11.3;63.0
84440;SHT31;74675;51.980;5.730;2024-02-23T14:39:10;11.3;61.2
84440;SHT31;74675;51.980;5.730;2024-02-23T14:41:39;11.3;61.9
84440;SHT31;74675;51.980;5.730;2024-02-23T14:44:08;11.3;62.2
84440;SHT31;74675;51.980;5.730;2024-02-23T14:46:36;11.3;61.9
84440;SHT31;74675;51.980;5.730;2024-02-23T14:49:06;11.3;62.5
84440;SHT31;74675;51.980;5.730;2024-02-23T14:51:35;11.3;61.9
84440;SHT31;74675;51.980;5.730;2024-02-23T14:54:03;11.2;62.0
84440;SHT31;74675;51.980;5.730;2024-02-23T14:56:32;11.2;62.7
84440;SHT31;74675;51.980;5.730;2024-02-23T14:59:01;11.1;63.0
84440;SHT31;74675;51.980;5.730;2024-02-23T15:01:29;11.0;63.5
84440;SHT31;74675;51.980;5.730;2024-02-23T15:03:58;11.0;64.6
84440;SHT31;74675;51.980;5.730;2024-02-23T15:06:27;11.0;65.0
84440;SHT31;74675;51.980;5.730;2024-02-23T15:08:55;11.0;64.5
84440;SHT31;74675;51.980;5.730;2024-02-23T15:11:24;11.0;64.7
84440;SHT31;74675;51.980;5.730;2024-02-23T15:13:53;11.0;64.6
84440;SHT31;74675;51.980;5.730;2024-02-23T15:16:24;11.0;64.9
84440;SHT31;74675;51.980;5.730;2024-02-23T15:18:52;11.0;64.0
84440;SHT31;74675;51.980;5.730;2024-02-23T15:21:23;10.9;64.6
84440;SHT31;74675;51.980;5.730;2024-02-23T15:23:52;10.9;65.2
84440;SHT31;74675;51.980;5.730;2024-02-23T15:26:20;10.8;64.7
84440;SHT31;74675;51.980;5.730;2024-02-23T15:28:49;10.8;64.5
84440;SHT31;74675;51.980;5.730;2024-02-23T15:31:17;10.6;66.8
84440;SHT31;74675;51.980;5.730;2024-02-23T15:33:47;10.4;68.1
84440;SHT31;74675;51.980;5.730;2024-02-23T15:36:16;10.2;70.3
84440;SHT31;74675;51.980;5.730;2024-02-23T15:38:46;10.0;71.8
84440;SHT31;74675;51.980;5.730;2024-02-23T15:41:15;9.8;73.3
84440;SHT31;74675;51.980;5.730;2024-02-23T15:43:44;9.7;74.5
84440;SHT31;74675;51.980;5.730;2024-02-23T15:46:12;9.7;75.7
84440;SHT31;74675;51.980;5.730;2024-02-23T15:48:41;9.7;76.3
84440;SHT31;74675;51.980;5.730;2024-02-23T15:51:10;9.9;77.0
84440;SHT31;74675;51.980;5.730;2024-02-23T15:53:38;10.0;74.2
84440;SHT31;74675;51.980;5.730;2024-02-23T15:56:09;10.1;73.5
84440;SHT31;74675;51.980;5.730;2024-02-23T15:58:37;10.2;72.6
84440;SHT31;74675;51.980;5.730;2024-02-23T16:01:06;10.2;72.1
84440;SHT31;74675;51.980;5.730;2024-02-23T16:03:35;10.2;71.7
84440;SHT31;74675;51.980;5.730;2024-02-23T16:06:04;10.2;70.4
84440;SHT31;74675;51.980;5.730;2024-02-23T16:08:43;10.1;70.4
84440;SHT31;74675;51.980;5.730;2024-02-23T16:11:13;10.1;70.3
84440;SHT31;74675;51.980;5.730;2024-02-23T16:13:42;10.1;70.1
84440;SHT31;74675;51.980;5.730;2024-02-23T16:16:12;10.0;71.1
84440;SHT31;74675;51.980;5.730;2024-02-23T16:18:41;10.0;71.8
84440;SHT31;74675;51.980;5.730;2024-02-23T16:21:11;9.9;71.6
84440;SHT31;74675;51.980;5.730;2024-02-23T16:23:42;9.9;70.4
84440;SHT31;74675;51.980;5.730;2024-02-23T16:26:11;9.9;71.1
84440;SHT31;74675;51.980;5.730;2024-02-23T16:28:39;9.8;71.2